createdAt,value
2023-04-27T00:01:51.769Z,3.17
2023-04-27T00:04:19.223Z,3.78
2023-04-27T00:06:46.023Z,3.47
2023-04-27T00:09:12.754Z,3.55
2023-04-27T00:11:39.396Z,3.35
2023-04-27T00:14:05.996Z,2.80
2023-04-27T00:16:32.528Z,3.65
2023-04-27T00:18:59.016Z,3.88
2023-04-27T00:21:25.425Z,3.50
2023-04-27T00:23:51.824Z,2.95
2023-04-27T00:26:18.238Z,3.70
2023-04-27T00:28:48.319Z,4.93
2023-04-27T00:31:14.725Z,2.95
2023-04-27T00:33:41.105Z,3.28
2023-04-27T00:36:08.368Z,3.08
2023-04-27T00:38:34.827Z,2.88
2023-04-27T00:41:06.444Z,3.78
2023-04-27T00:43:33.661Z,3.92
2023-04-27T00:46:00.809Z,3.00
2023-04-27T00:48:27.672Z,4.18
2023-04-27T00:50:54.427Z,2.75
2023-04-27T00:53:21.553Z,3.38
2023-04-27T00:55:49.193Z,3.20
2023-04-27T00:58:15.657Z,3.00
2023-04-27T01:00:42.372Z,2.80
2023-04-27T01:03:09.706Z,2.95
2023-04-27T01:05:37.707Z,3.80
2023-04-27T01:08:04.810Z,2.95
2023-04-27T01:10:31.184Z,3.20
2023-04-27T01:12:57.576Z,2.65
2023-04-27T01:15:23.996Z,3.47
2023-04-27T01:17:57.622Z,3.45
2023-04-27T01:20:24.227Z,2.95
2023-04-27T01:22:50.645Z,2.83
2023-04-27T01:25:17.401Z,3.03
2023-04-27T01:27:43.810Z,3.25
2023-04-27T01:30:10.932Z,2.90
2023-04-27T01:32:38.881Z,2.97
2023-04-27T01:35:06.352Z,3.40
2023-04-27T01:37:32.948Z,3.25
2023-04-27T01:39:59.342Z,2.88
2023-04-27T01:42:25.991Z,3.33
2023-04-27T01:44:52.424Z,2.97
2023-04-27T01:47:18.814Z,2.50
2023-04-27T01:49:45.290Z,2.67
2023-04-27T01:52:11.901Z,2.90
2023-04-27T01:54:38.409Z,3.17
2023-04-27T01:57:06.124Z,3.10
2023-04-27T01:59:33.350Z,2.80
2023-04-27T02:01:59.935Z,3.33
2023-04-27T02:04:26.535Z,3.10
2023-04-27T02:06:52.991Z,3.45
2023-04-27T02:09:19.380Z,3.08
2023-04-27T02:11:45.795Z,3.33
2023-04-27T02:14:12.212Z,3.35
2023-04-27T02:16:38.624Z,3.30
2023-04-27T02:19:05.146Z,3.20
2023-04-27T02:21:31.576Z,3.80
2023-04-27T02:23:58.102Z,3.10
2023-04-27T02:26:29.232Z,3.63
2023-04-27T02:28:57.044Z,3.63
2023-04-27T02:31:24.360Z,3.05
2023-04-27T02:33:51.004Z,3.55
2023-04-27T02:36:17.418Z,3.28
2023-04-27T02:38:43.918Z,2.78
2023-04-27T02:41:10.322Z,3.38
2023-04-27T02:43:36.755Z,3.35
2023-04-27T02:46:05.649Z,3.15
2023-04-27T02:48:32.565Z,3.00
2023-04-27T02:50:59.100Z,3.22
2023-04-27T02:53:25.567Z,2.92
2023-04-27T02:55:52.024Z,3.58
2023-04-27T02:58:18.510Z,2.33
2023-04-27T03:00:45.403Z,3.00
2023-04-27T03:03:12.058Z,3.28
2023-04-27T03:05:38.606Z,2.95
2023-04-27T03:08:05.289Z,3.38
2023-04-27T03:10:31.708Z,2.70
2023-04-27T03:12:58.585Z,2.70
2023-04-27T03:15:25.026Z,2.90
2023-04-27T03:17:52.157Z,3.08
2023-04-27T03:20:18.774Z,4.32
2023-04-27T03:22:45.872Z,3.20
2023-04-27T03:25:12.315Z,3.13
2023-04-27T03:27:38.890Z,3.47
2023-04-27T03:30:06.201Z,3.22
2023-04-27T03:32:32.821Z,3.15
2023-04-27T03:35:00.934Z,2.30
2023-04-27T03:37:27.434Z,2.88
2023-04-27T03:39:53.829Z,2.75
2023-04-27T03:42:20.283Z,2.70
2023-04-27T03:44:46.806Z,3.38
2023-04-27T03:47:13.513Z,3.33
2023-04-27T03:49:40.462Z,2.47
2023-04-27T03:52:07.916Z,2.80
2023-04-27T03:54:34.632Z,2.70
2023-04-27T03:57:02.504Z,2.63
2023-04-27T03:59:30.120Z,3.45
2023-04-27T04:01:59.516Z,4.18
2023-04-27T04:04:27.837Z,3.00
2023-04-27T04:06:54.421Z,2.40
2023-04-27T04:09:22.704Z,2.65
2023-04-27T04:11:51.898Z,2.90
2023-04-27T04:14:19.043Z,3.05
2023-04-27T04:16:45.557Z,3.17
2023-04-27T04:19:13.037Z,3.05
2023-04-27T04:21:39.613Z,3.33
2023-04-27T04:24:07.389Z,3.33
2023-04-27T04:26:33.821Z,3.45
2023-04-27T04:29:01.001Z,3.08
2023-04-27T04:31:27.593Z,3.15
2023-04-27T04:33:54.119Z,2.85
2023-04-27T04:36:20.830Z,3.15
2023-04-27T04:38:52.335Z,4.10
2023-04-27T04:41:19.224Z,3.03
2023-04-27T04:43:45.661Z,2.95
2023-04-27T04:46:12.136Z,3.45
2023-04-27T04:48:38.733Z,3.47
2023-04-27T04:51:07.003Z,3.05
2023-04-27T04:53:34.258Z,4.18
2023-04-27T04:56:14.056Z,3.65
2023-04-27T04:58:40.660Z,3.75
2023-04-27T05:01:07.379Z,3.97
2023-04-27T05:03:34.192Z,3.80
2023-04-27T05:06:00.771Z,4.18
2023-04-27T05:08:27.321Z,3.78
2023-04-27T05:10:54.547Z,4.13
2023-04-27T05:13:21.890Z,3.70
2023-04-27T05:15:48.408Z,4.13
2023-04-27T05:18:14.879Z,3.85
2023-04-27T05:20:41.352Z,4.00
2023-04-27T05:23:07.830Z,3.90
2023-04-27T05:25:34.955Z,4.32
2023-04-27T05:28:01.432Z,3.65
2023-04-27T05:30:27.925Z,4.03
2023-04-27T05:32:54.426Z,3.85
2023-04-27T05:35:20.879Z,5.35
2023-04-27T05:37:47.324Z,3.67
2023-04-27T05:40:15.240Z,4.93
2023-04-27T05:42:41.672Z,4.03
2023-04-27T05:45:08.584Z,3.65
2023-04-27T05:47:35.757Z,3.72
2023-04-27T05:50:02.214Z,5.00
2023-04-27T05:52:29.467Z,4.43
2023-04-27T05:54:56.644Z,4.28
2023-04-27T05:57:23.060Z,3.78
2023-04-27T05:59:49.492Z,4.18
2023-04-27T06:02:16.562Z,3.95
2023-04-27T06:04:43.371Z,3.88
2023-04-27T06:07:11.136Z,3.63
2023-04-27T06:09:38.010Z,4.53
2023-04-27T06:12:06.142Z,4.95
2023-04-27T06:14:34.451Z,4.35
2023-04-27T06:17:00.929Z,3.95
2023-04-27T06:19:27.349Z,3.97
2023-04-27T06:21:57.032Z,4.75
2023-04-27T06:24:23.491Z,3.95
2023-04-27T06:26:50.049Z,4.38
2023-04-27T06:29:16.581Z,3.60
2023-04-27T06:31:43.211Z,6.20
2023-04-27T06:34:09.726Z,8.63
2023-04-27T06:36:36.269Z,4.13
2023-04-27T06:39:02.713Z,3.85
2023-04-27T06:41:29.149Z,4.13
2023-04-27T06:43:57.452Z,3.75
2023-04-27T06:46:25.058Z,4.20
2023-04-27T06:48:52.570Z,3.55
2023-04-27T06:51:18.974Z,4.30
2023-04-27T06:53:45.512Z,3.97
2023-04-27T06:56:12.154Z,3.67
2023-04-27T06:58:38.547Z,3.55
2023-04-27T07:01:05.262Z,3.88
2023-04-27T07:03:36.406Z,3.70
2023-04-27T07:06:03.194Z,4.35
2023-04-27T07:08:29.671Z,4.28
2023-04-27T07:10:56.153Z,3.85
2023-04-27T07:13:22.632Z,2.95
2023-04-27T07:15:54.899Z,3.28
2023-04-27T07:18:21.306Z,5.00
2023-04-27T07:20:47.688Z,3.85
2023-04-27T07:23:14.137Z,3.40
2023-04-27T07:25:40.647Z,3.70
2023-04-27T07:28:07.142Z,2.97
2023-04-27T07:30:36.327Z,5.32
2023-04-27T07:33:03.131Z,3.45
2023-04-27T07:35:29.597Z,3.83
2023-04-27T07:37:56.555Z,3.45
2023-04-27T07:40:24.173Z,2.80
2023-04-27T07:42:51.097Z,3.13
2023-04-27T07:45:17.935Z,3.67
2023-04-27T07:47:44.656Z,2.95
2023-04-27T07:50:11.310Z,2.63
2023-04-27T07:52:37.743Z,3.15
2023-04-27T07:55:04.581Z,2.80
2023-04-27T07:57:31.456Z,3.05
2023-04-27T07:59:57.989Z,3.35
2023-04-27T08:02:26.741Z,3.20
2023-04-27T08:04:53.445Z,4.00
2023-04-27T08:07:20.278Z,3.10
2023-04-27T08:09:46.940Z,4.30
2023-04-27T08:12:13.363Z,3.35
2023-04-27T08:14:39.727Z,2.88
2023-04-27T08:17:06.196Z,3.10
2023-04-27T08:19:32.671Z,2.67
2023-04-27T08:21:59.042Z,3.90
2023-04-27T08:24:25.575Z,3.38
2023-04-27T08:26:51.973Z,3.72
2023-04-27T08:29:26.800Z,2.75
2023-04-27T08:31:56.748Z,4.20
2023-04-27T08:34:23.874Z,2.75
2023-04-27T08:36:50.320Z,3.35
2023-04-27T08:39:17.937Z,3.58
2023-04-27T08:41:44.568Z,4.18
2023-04-27T08:44:10.918Z,2.80
2023-04-27T08:46:38.356Z,3.85
2023-04-27T08:49:05.425Z,4.13
2023-04-27T08:51:32.315Z,3.75
2023-04-27T08:53:59.366Z,3.45
2023-04-27T08:56:27.978Z,3.65
2023-04-27T08:58:56.153Z,3.13
2023-04-27T09:01:24.072Z,3.47
2023-04-27T09:03:59.325Z,4.22
2023-04-27T09:06:33.992Z,2.90
2023-04-27T09:09:01.111Z,3.40
2023-04-27T09:11:31.701Z,3.38
2023-04-27T09:14:03.931Z,2.95
2023-04-27T09:16:31.809Z,3.47
2023-04-27T09:18:58.962Z,3.33
2023-04-27T09:21:31.203Z,3.38
2023-04-27T09:23:57.656Z,3.35
2023-04-27T09:26:26.777Z,3.40
2023-04-27T09:28:58.358Z,3.75
2023-04-27T09:31:32.711Z,4.20
2023-04-27T09:33:59.188Z,3.10
2023-04-27T09:36:26.398Z,3.45
2023-04-27T09:38:53.560Z,4.72
2023-04-27T09:41:20.587Z,3.78
2023-04-27T09:43:47.342Z,3.95
2023-04-27T09:46:15.043Z,4.07
2023-04-27T09:48:42.436Z,4.57
2023-04-27T09:51:09.060Z,4.40
2023-04-27T09:53:53.932Z,3.53
2023-04-27T09:56:28.942Z,3.88
2023-04-27T09:59:10.000Z,4.00
2023-04-27T10:01:39.563Z,3.88
2023-04-27T10:04:48.205Z,3.58
2023-04-27T10:07:15.217Z,4.30
2023-04-27T10:09:41.624Z,3.40
2023-04-27T10:12:20.079Z,4.35
2023-04-27T10:14:50.838Z,3.58
2023-04-27T10:17:17.691Z,3.63
2023-04-27T10:19:58.390Z,4.35
2023-04-27T10:22:38.157Z,3.67
2023-04-27T10:25:12.902Z,4.43
2023-04-27T10:27:39.874Z,3.50
2023-04-27T10:30:14.173Z,3.97
2023-04-27T10:32:53.730Z,3.35
2023-04-27T10:35:21.597Z,4.00
2023-04-27T10:37:48.216Z,3.53
2023-04-27T10:40:17.575Z,3.53
2023-04-27T10:42:45.736Z,3.53
2023-04-27T10:45:13.690Z,3.60
2023-04-27T10:47:42.167Z,4.65
2023-04-27T10:50:11.405Z,4.18
2023-04-27T10:52:44.480Z,4.03
2023-04-27T10:55:18.132Z,3.88
2023-04-27T10:57:53.235Z,3.72
2023-04-27T11:00:44.248Z,3.95
2023-04-27T11:03:12.522Z,4.07
2023-04-27T11:05:39.218Z,3.70
2023-04-27T11:08:10.120Z,4.03
2023-04-27T11:10:54.364Z,3.22
2023-04-27T11:13:25.470Z,4.75
2023-04-27T11:15:54.688Z,4.18
2023-04-27T11:18:23.614Z,3.70
2023-04-27T11:20:52.415Z,4.00
2023-04-27T11:23:36.955Z,3.20
2023-04-27T11:26:10.609Z,3.05
2023-04-27T11:28:37.427Z,3.33
2023-04-27T11:31:06.392Z,3.58
2023-04-27T11:33:33.475Z,4.38
2023-04-27T11:36:00.386Z,3.95
2023-04-27T11:38:33.624Z,4.28
2023-04-27T11:41:04.911Z,4.13
2023-04-27T11:43:32.151Z,4.25
2023-04-27T11:45:58.847Z,4.20
2023-04-27T11:48:28.714Z,3.30
2023-04-27T11:50:58.953Z,3.83
2023-04-27T11:53:33.803Z,3.72
2023-04-27T11:56:02.508Z,3.97
2023-04-27T11:58:30.227Z,3.50
2023-04-27T12:00:57.846Z,5.18
2023-04-27T12:03:25.944Z,6.72
2023-04-27T12:05:52.978Z,4.70
2023-04-27T12:08:20.427Z,6.30
2023-04-27T12:10:47.295Z,7.95
2023-04-27T12:13:14.356Z,3.90
2023-04-27T12:15:42.275Z,4.07
2023-04-27T12:18:09.788Z,3.78
2023-04-27T12:20:36.538Z,3.70
2023-04-27T12:23:02.938Z,4.00
2023-04-27T12:25:30.208Z,3.80
2023-04-27T12:27:56.598Z,4.20
2023-04-27T12:30:23.855Z,3.67
2023-04-27T12:32:50.933Z,3.25
2023-04-27T12:35:17.407Z,4.50
2023-04-27T12:37:43.853Z,3.97
2023-04-27T12:40:10.478Z,3.40
2023-04-27T12:42:36.872Z,4.38
2023-04-27T12:45:04.477Z,3.10
2023-04-27T12:47:50.315Z,3.30
2023-04-27T12:50:18.575Z,3.83
2023-04-27T12:52:44.929Z,3.63
2023-04-27T12:55:24.760Z,2.97
2023-04-27T12:57:58.197Z,2.97
2023-04-27T13:00:25.170Z,3.20
2023-04-27T13:02:52.525Z,3.15
2023-04-27T13:05:19.687Z,3.20
2023-04-27T13:07:46.106Z,3.22
2023-04-27T13:10:12.616Z,3.13
2023-04-27T13:12:39.099Z,2.63
2023-04-27T13:15:07.641Z,3.25
2023-04-27T13:17:34.110Z,2.80
2023-04-27T13:20:00.583Z,2.95
2023-04-27T13:22:28.129Z,3.58
2023-04-27T13:24:54.836Z,3.30
2023-04-27T13:27:22.363Z,3.38
2023-04-27T13:29:49.526Z,3.53
2023-04-27T13:32:15.968Z,2.70
2023-04-27T13:34:42.411Z,3.35
2023-04-27T13:37:08.771Z,3.20
2023-04-27T13:39:37.386Z,3.33
2023-04-27T13:42:04.034Z,3.60
2023-04-27T13:44:31.541Z,3.33
2023-04-27T13:46:57.991Z,3.58
2023-04-27T13:49:24.358Z,2.33
2023-04-27T13:51:50.756Z,3.25
2023-04-27T13:54:17.191Z,3.50
2023-04-27T13:56:43.632Z,3.28
2023-04-27T13:59:10.531Z,3.80
2023-04-27T14:01:37.968Z,3.55
2023-04-27T14:04:04.653Z,3.20
2023-04-27T14:06:31.967Z,3.50
2023-04-27T14:08:58.347Z,4.05
2023-04-27T14:11:26.042Z,3.67
2023-04-27T14:13:54.028Z,3.20
2023-04-27T14:16:20.954Z,3.92
2023-04-27T14:18:47.409Z,2.80
2023-04-27T14:21:13.837Z,2.38
2023-04-27T14:23:40.259Z,2.40
2023-04-27T14:26:06.725Z,4.28
2023-04-27T14:28:33.228Z,2.42
2023-04-27T14:30:59.672Z,2.55
2023-04-27T14:33:26.054Z,2.63
2023-04-27T14:35:52.487Z,2.40
2023-04-27T14:38:18.844Z,2.17
2023-04-27T14:40:45.691Z,3.50
2023-04-27T14:43:12.098Z,3.92
2023-04-27T14:45:48.074Z,3.03
2023-04-27T14:48:17.100Z,2.72
2023-04-27T14:50:43.609Z,3.22
2023-04-27T14:53:09.992Z,3.00
2023-04-27T14:55:36.644Z,3.40
2023-04-27T14:58:03.259Z,2.95
2023-04-27T15:00:29.806Z,2.72
2023-04-27T15:02:56.272Z,2.67
2023-04-27T15:05:22.822Z,3.13
2023-04-27T15:07:49.300Z,3.38
2023-04-27T15:10:15.757Z,2.70
2023-04-27T15:12:42.415Z,2.67
2023-04-27T15:15:10.503Z,2.72
2023-04-27T15:17:37.108Z,2.97
2023-04-27T15:20:05.563Z,2.75
2023-04-27T15:22:32.151Z,2.40
2023-04-27T15:24:58.542Z,2.97
2023-04-27T15:27:26.087Z,3.15
2023-04-27T15:29:55.550Z,3.47
2023-04-27T15:32:24.395Z,3.42
2023-04-27T15:34:51.727Z,2.83
2023-04-27T15:37:18.258Z,3.15
2023-04-27T15:39:44.726Z,3.03
2023-04-27T15:42:11.265Z,2.95
2023-04-27T15:44:37.643Z,3.17
2023-04-27T15:47:04.601Z,3.67
2023-04-27T15:49:31.192Z,3.22
2023-04-27T15:51:57.597Z,2.65
2023-04-27T15:54:24.117Z,3.15
2023-04-27T15:56:50.913Z,3.33
2023-04-27T15:59:18.072Z,3.10
2023-04-27T16:01:44.534Z,3.50
2023-04-27T16:04:11.038Z,2.80
2023-04-27T16:06:37.801Z,2.83
2023-04-27T16:09:04.709Z,2.50
2023-04-27T16:11:31.565Z,3.13
2023-04-27T16:13:58.313Z,2.80
2023-04-27T16:16:25.034Z,3.47
2023-04-27T16:18:51.527Z,2.85
2023-04-27T16:21:18.030Z,3.20
2023-04-27T16:23:44.722Z,3.22
2023-04-27T16:26:11.380Z,2.88
2023-04-27T16:28:38.079Z,2.83
2023-04-27T16:31:04.682Z,2.28
2023-04-27T16:33:31.261Z,3.03
2023-04-27T16:35:57.770Z,2.47
2023-04-27T16:38:24.255Z,3.10
2023-04-27T16:40:51.859Z,3.53
2023-04-27T16:43:18.477Z,2.85
2023-04-27T16:45:44.913Z,2.38
2023-04-27T16:48:11.974Z,1.88
2023-04-27T16:50:38.860Z,2.40
2023-04-27T16:53:10.831Z,2.33
2023-04-27T16:55:37.350Z,2.10
2023-04-27T16:58:03.806Z,2.45
2023-04-27T17:00:30.431Z,2.42
2023-04-27T17:02:56.971Z,2.63
2023-04-27T17:05:23.502Z,2.38
2023-04-27T17:07:49.885Z,3.00
2023-04-27T17:10:16.855Z,2.55
2023-04-27T17:12:43.221Z,2.03
2023-04-27T17:15:10.466Z,2.13
2023-04-27T17:17:36.957Z,2.45
2023-04-27T17:20:04.845Z,1.80
2023-04-27T17:22:32.754Z,1.83
2023-04-27T17:24:59.340Z,3.13
2023-04-27T17:27:25.975Z,2.13
2023-04-27T17:29:54.084Z,2.13
2023-04-27T17:32:20.514Z,2.72
2023-04-27T17:34:47.117Z,1.95
2023-04-27T17:37:14.754Z,1.80
2023-04-27T17:39:41.418Z,1.70
2023-04-27T17:42:11.906Z,2.00
2023-04-27T17:44:40.969Z,1.52
2023-04-27T17:47:07.874Z,2.20
2023-04-27T17:49:34.865Z,2.22
2023-04-27T17:52:02.030Z,2.20
2023-04-27T17:54:30.056Z,2.10
2023-04-27T17:56:57.202Z,2.47
2023-04-27T17:59:24.749Z,2.03
2023-04-27T18:01:51.217Z,2.60
2023-04-27T18:04:17.791Z,2.90
2023-04-27T18:06:44.282Z,1.80
2023-04-27T18:09:10.740Z,2.58
2023-04-27T18:11:37.117Z,2.00
2023-04-27T18:14:03.665Z,1.90
2023-04-27T18:16:30.137Z,2.00
2023-04-27T18:18:56.541Z,2.10
2023-04-27T18:21:22.900Z,2.60
2023-04-27T18:23:49.312Z,2.42
2023-04-27T18:26:16.427Z,2.60
2023-04-27T18:28:43.143Z,2.30
2023-04-27T18:31:16.771Z,2.17
2023-04-27T18:33:44.312Z,2.70
2023-04-27T18:36:11.164Z,2.63
2023-04-27T18:38:37.611Z,2.50
2023-04-27T18:41:04.686Z,2.50
2023-04-27T18:43:31.183Z,3.00
2023-04-27T18:45:57.656Z,2.88
2023-04-27T18:48:24.055Z,2.17
2023-04-27T18:50:50.431Z,3.28
2023-04-27T18:53:16.954Z,2.88
2023-04-27T18:55:43.338Z,3.28
2023-04-27T18:58:10.145Z,2.90
2023-04-27T19:00:37.913Z,4.75
2023-04-27T19:03:05.530Z,3.90
2023-04-27T19:05:32.350Z,3.97
2023-04-27T19:07:58.968Z,3.92
2023-04-27T19:10:25.447Z,3.97
2023-04-27T19:12:51.872Z,3.63
2023-04-27T19:15:18.277Z,3.47
2023-04-27T19:17:45.123Z,3.20
2023-04-27T19:20:12.391Z,2.85
2023-04-27T19:22:38.961Z,3.63
2023-04-27T19:25:06.217Z,3.42
2023-04-27T19:27:32.661Z,4.75
2023-04-27T19:29:59.167Z,3.90
2023-04-27T19:32:27.168Z,3.33
2023-04-27T19:34:56.132Z,4.55
2023-04-27T19:37:23.249Z,3.70
2023-04-27T19:39:49.660Z,3.38
2023-04-27T19:42:16.554Z,3.53
2023-04-27T19:44:42.999Z,3.42
2023-04-27T19:47:10.780Z,3.72
2023-04-27T19:49:38.062Z,3.90
2023-04-27T19:52:05.189Z,3.72
2023-04-27T19:54:31.657Z,3.35
2023-04-27T19:56:58.100Z,3.67
2023-04-27T19:59:24.553Z,3.78
2023-04-27T20:01:51.169Z,4.13
2023-04-27T20:04:18.593Z,4.20
2023-04-27T20:06:46.174Z,5.50
2023-04-27T20:09:12.600Z,3.90
2023-04-27T20:11:39.215Z,4.55
2023-04-27T20:14:05.799Z,3.42
2023-04-27T20:16:32.488Z,4.80
2023-04-27T20:18:58.888Z,4.90
2023-04-27T20:21:26.171Z,5.45
2023-04-27T20:23:52.551Z,5.22
2023-04-27T20:26:18.906Z,5.40
2023-04-27T20:28:45.629Z,5.05
2023-04-27T20:31:12.437Z,4.85
2023-04-27T20:33:38.824Z,5.22
2023-04-27T20:36:14.306Z,4.95
2023-04-27T20:38:43.983Z,5.22
2023-04-27T20:41:12.119Z,5.30
2023-04-27T20:43:40.019Z,5.50
2023-04-27T20:46:07.654Z,5.05
2023-04-27T20:48:34.616Z,5.43
2023-04-27T20:51:01.184Z,5.57
2023-04-27T20:53:27.834Z,5.35
2023-04-27T20:55:54.258Z,4.95
2023-04-27T20:58:20.703Z,5.25
2023-04-27T21:00:47.104Z,6.93
2023-04-27T21:03:14.098Z,4.88
2023-04-27T21:05:41.337Z,4.95
2023-04-27T21:08:07.831Z,5.93
2023-04-27T21:10:35.364Z,5.75
2023-04-27T21:13:03.903Z,6.05
2023-04-27T21:15:30.455Z,5.25
2023-04-27T21:17:56.893Z,5.18
2023-04-27T21:20:23.289Z,4.70
2023-04-27T21:22:49.649Z,5.13
2023-04-27T21:25:16.145Z,4.32
2023-04-27T21:27:42.590Z,4.85
2023-04-27T21:30:09.658Z,4.72
2023-04-27T21:32:36.067Z,4.50
2023-04-27T21:35:02.521Z,4.28
2023-04-27T21:37:28.912Z,4.47
2023-04-27T21:39:55.283Z,4.55
2023-04-27T21:42:21.675Z,4.28
2023-04-27T21:44:48.083Z,5.15
2023-04-27T21:47:14.581Z,3.85
2023-04-27T21:49:40.991Z,4.88
2023-04-27T21:52:07.475Z,5.97
2023-04-27T21:54:33.945Z,4.78
2023-04-27T21:57:00.418Z,4.55
2023-04-27T21:59:26.819Z,5.03
2023-04-27T22:01:53.589Z,4.05
2023-04-27T22:04:20.432Z,3.65
2023-04-27T22:06:47.722Z,4.53
2023-04-27T22:09:14.175Z,4.65
2023-04-27T22:11:41.041Z,5.13
2023-04-27T22:14:07.680Z,4.35
2023-04-27T22:16:34.142Z,4.55
2023-04-27T22:19:01.000Z,4.13
2023-04-27T22:21:28.747Z,4.45
2023-04-27T22:23:55.275Z,4.10
2023-04-27T22:26:21.812Z,3.92
2023-04-27T22:28:48.359Z,4.63
2023-04-27T22:31:14.865Z,4.10
2023-04-27T22:33:41.359Z,3.95
2023-04-27T22:36:08.113Z,3.72
2023-04-27T22:38:34.651Z,3.80
2023-04-27T22:41:01.051Z,4.13
2023-04-27T22:43:27.461Z,3.78
2023-04-27T22:45:53.916Z,3.95
2023-04-27T22:48:20.317Z,3.22
2023-04-27T22:50:46.782Z,3.97
2023-04-27T22:53:13.212Z,4.10
2023-04-27T22:55:39.605Z,4.53
2023-04-27T22:58:05.992Z,3.72
2023-04-27T23:00:32.523Z,3.47
2023-04-27T23:02:59.017Z,4.30
2023-04-27T23:05:25.644Z,3.83
2023-04-27T23:07:52.151Z,4.03
2023-04-27T23:10:18.803Z,4.68
2023-04-27T23:12:45.598Z,4.00
2023-04-27T23:15:12.377Z,4.20
2023-04-27T23:17:38.891Z,3.40
2023-04-27T23:20:11.256Z,4.28
2023-04-27T23:22:43.797Z,3.53
2023-04-27T23:25:10.703Z,3.83
2023-04-27T23:27:37.402Z,3.47
2023-04-27T23:30:04.548Z,3.38
2023-04-27T23:32:31.011Z,3.95
2023-04-27T23:34:57.424Z,3.47
2023-04-27T23:37:24.793Z,4.07
2023-04-27T23:39:51.468Z,4.00
2023-04-27T23:42:17.966Z,3.50
2023-04-27T23:44:44.346Z,3.17
2023-04-27T23:47:10.880Z,3.85
2023-04-27T23:49:37.319Z,4.22
2023-04-27T23:52:03.865Z,5.07
2023-04-27T23:54:33.454Z,3.25
2023-04-27T23:56:59.895Z,3.80
2023-04-27T23:59:26.338Z,3.63
